Genesis Patriot — WDG9346 — position and weather

sailwx.info

Track history (hours):
 
Tides and Currents Weather Stations Pressure Air Temp Water Temp Dewpoint Dewpoint Depression Visibility Wind Speed Wind Dir Waves Ship Positions

Genesis Patriot

Owner: Genesis Marine, LLC, Houston, TX. More information available from US FCC via Universal Licensing System and Coast Guard Vessel Documentation Center.

Last reported at 2017-Dec-14 16:31 UTC. Time now 2017-Dec-16 01:28 UTC.
Position N 25°30' W 080°03'.

Length 171 m; draft 5.5 m.

Type: . MMSI: 338708000.

Date/timePositionNaut miles runAvg speedWind from/ knotsBaromVisibWave heightAir tempDewpointWater temp
2017-Dec-14 16:31N 25°30' W 080°03'1 7.6
2017-Dec-14 16:26N 25°31' W 080°03'3 7.7
2017-Dec-14 16:01N 25°34' W 080°02'8 7.8
2017-Dec-14 15:00N 25°42' W 080°03'4 7.9
2017-Dec-14 14:30N 25°46' W 080°05'4 7.2
2017-Dec-14 14:01N 25°46' W 080°09'0 0.1
2017-Dec-14 13:30N 25°46' W 080°09'0 0.0
2017-Dec-14 12:59N 25°46' W 080°09'0 0.0
2017-Dec-14 12:29N 25°46' W 080°09'0 0.0
2017-Dec-14 11:59N 25°46' W 080°09'0 0.0
2017-Dec-14 11:29N 25°46' W 080°09'0 0.0
2017-Dec-14 10:59N 25°46' W 080°09'0 0.0
2017-Dec-14 10:29N 25°46' W 080°09'0 0.0
2017-Dec-14 09:59N 25°46' W 080°09'0 0.0
2017-Dec-14 09:29N 25°46' W 080°09'0 0.0
2017-Dec-14 08:59N 25°46' W 080°09'0 0.0
2017-Dec-14 08:29N 25°46' W 080°09'0 0.0
2017-Dec-14 07:59N 25°46' W 080°09'0 0.0
2017-Dec-14 07:20N 25°46' W 080°09'0 0.0
2017-Dec-14 06:50N 25°46' W 080°09'0 0.0
2017-Dec-14 06:20N 25°46' W 080°09'0 0.0
2017-Dec-14 05:53N 25°46' W 080°09'0 0.0
2017-Dec-14 05:20N 25°46' W 080°09'0 0.0
2017-Dec-14 04:53N 25°46' W 080°09'0 0.0
2017-Dec-14 04:23N 25°46' W 080°09'0 0.0
2017-Dec-14 03:53N 25°46' W 080°09'0 0.0
2017-Dec-14 03:23N 25°46' W 080°09'0 0.0
2017-Dec-14 02:53N 25°46' W 080°09'0 0.5
2017-Dec-14 02:23N 25°46' W 080°09'0 0.0
2017-Dec-14 01:35N 25°46' W 080°09'0 0.0
2017-Dec-14 01:23N 25°46' W 080°09'0 0.0
2017-Dec-14 00:52N 25°46' W 080°09'0 0.0
2017-Dec-14 00:23N 25°46' W 080°09'0 0.0
2017-Dec-13 23:53N 25°46' W 080°09'0 0.0
2017-Dec-13 23:23N 25°46' W 080°09'0 0.0
2017-Dec-13 22:49N 25°46' W 080°09'0 0.0
2017-Dec-13 22:25N 25°46' W 080°09'0 0.0
2017-Dec-13 21:55N 25°46' W 080°09'0 0.0
2017-Dec-13 21:26N 25°46' W 080°09'0 0.0
2017-Dec-13 20:52N 25°46' W 080°09'0 0.0
2017-Dec-13 20:29N 25°46' W 080°09'0 0.0
2017-Dec-13 20:00N 25°46' W 080°09'0 0.4
2017-Dec-13 19:27N 25°46' W 080°09'0 0.0
2017-Dec-13 18:57N 25°46' W 080°09'0 0.0
2017-Dec-13 18:30N 25°46' W 080°09'0 0.0
2017-Dec-13 18:00N 25°46' W 080°09'0 0.0
2017-Dec-13 17:30N 25°46' W 080°09'0 0.0
2017-Dec-13 17:00N 25°46' W 080°09'0 0.0
2017-Dec-13 16:30N 25°46' W 080°09'0 0.0
2017-Dec-13 16:00N 25°46' W 080°09'0 0.0
2017-Dec-13 15:30N 25°46' W 080°09'0 0.0
2017-Dec-13 15:00N 25°46' W 080°09'0 0.0
2017-Dec-13 14:30N 25°46' W 080°09'0 0.0
2017-Dec-13 14:00N 25°46' W 080°09'0 0.0
2017-Dec-13 13:30N 25°46' W 080°09'0 0.0
2017-Dec-13 13:00N 25°46' W 080°09'0 0.0
2017-Dec-13 12:30N 25°46' W 080°09'0 0.0
2017-Dec-13 12:00N 25°46' W 080°09'2 3.7
2017-Dec-13 11:30N 25°45' W 080°07'3 5.0
2017-Dec-13 11:00N 25°47' W 080°05'1 1.5
2017-Dec-13 10:31N 25°47' W 080°06'0 0.1
2017-Dec-13 09:59N 25°47' W 080°05'0 0.1
2017-Dec-13 09:29N 25°47' W 080°06'0 0.1
2017-Dec-13 08:59N 25°47' W 080°05'0 0.1
2017-Dec-13 08:29N 25°47' W 080°05'0 0.1
2017-Dec-13 08:00N 25°47' W 080°05'0 0.2
2017-Dec-13 07:30N 25°47' W 080°05'0 0.2
2017-Dec-13 07:00N 25°47' W 080°05'3 5.8
2017-Dec-13 06:30N 25°45' W 080°04'510.4
2017-Dec-13 06:00N 25°40' W 080°03'510.5
2017-Dec-13 05:30N 25°34' W 080°02'611.2
2017-Dec-13 05:00N 25°29' W 080°02'710.6
2017-Dec-13 04:22N 25°22' W 080°02'  
2017-Dec-08 05:06N 29°30' W 094°52'1 8.7
2017-Dec-08 05:01N 29°31' W 094°53'4 8.0
2017-Dec-08 04:29N 29°34' W 094°55'4 8.0
2017-Dec-08 04:00N 29°37' W 094°58'4 8.9
2017-Dec-08 03:31N 29°42' W 094°59'4 7.6
2017-Dec-08 03:00N 29°44' W 095°03'3 0.1
2017-Dec-07 02:05N 29°45' W 095°06'0 0.0
2017-Dec-07 01:39N 29°45' W 095°06'0 0.0
2017-Dec-07 01:27N 29°45' W 095°06'0 0.0
2017-Dec-07 00:57N 29°45' W 095°06'0 0.0
2017-Dec-07 00:29N 29°45' W 095°06'0 0.0
2017-Dec-06 23:59N 29°45' W 095°06'0 0.0
2017-Dec-06 23:28N 29°45' W 095°06'0 0.0
2017-Dec-06 23:00N 29°45' W 095°06'0 0.0
2017-Dec-06 22:28N 29°45' W 095°06'0 0.0
2017-Dec-06 22:00N 29°45' W 095°06'0 0.0
2017-Dec-06 21:24N 29°45' W 095°06'0 0.0
2017-Dec-06 20:58N 29°45' W 095°06'  
Track history (hours):
 
Tides and Currents Weather Stations Pressure Air Temp Water Temp Dewpoint Dewpoint Depression Visibility Wind Speed Wind Dir Waves Ship Positions

Genesis Patriot

Owner: Genesis Marine, LLC, Houston, TX. More information available from US FCC via Universal Licensing System and Coast Guard Vessel Documentation Center.

Last reported at 2017-Dec-14 16:31 UTC. Time now 2017-Dec-16 01:28 UTC.
Position N 25°30' W 080°03'.

Length 171 m; draft 5.5 m.

Type: . MMSI: 338708000.

Date/timePositionNaut miles runAvg speedWind from/ knotsBaromVisibWave heightAir tempDewpointWater temp
2017-Dec-14 16:31N 25°30' W 080°03'1 7.6
2017-Dec-14 16:26N 25°31' W 080°03'3 7.7
2017-Dec-14 16:01N 25°34' W 080°02'8 7.8
2017-Dec-14 15:00N 25°42' W 080°03'4 7.9
2017-Dec-14 14:30N 25°46' W 080°05'4 7.2
2017-Dec-14 14:01N 25°46' W 080°09'0 0.1
2017-Dec-14 13:30N 25°46' W 080°09'0 0.0
2017-Dec-14 12:59N 25°46' W 080°09'0 0.0
2017-Dec-14 12:29N 25°46' W 080°09'0 0.0
2017-Dec-14 11:59N 25°46' W 080°09'0 0.0
2017-Dec-14 11:29N 25°46' W 080°09'0 0.0
2017-Dec-14 10:59N 25°46' W 080°09'0 0.0
2017-Dec-14 10:29N 25°46' W 080°09'0 0.0
2017-Dec-14 09:59N 25°46' W 080°09'0 0.0
2017-Dec-14 09:29N 25°46' W 080°09'0 0.0
2017-Dec-14 08:59N 25°46' W 080°09'0 0.0
2017-Dec-14 08:29N 25°46' W 080°09'0 0.0
2017-Dec-14 07:59N 25°46' W 080°09'0 0.0
2017-Dec-14 07:20N 25°46' W 080°09'0 0.0
2017-Dec-14 06:50N 25°46' W 080°09'0 0.0
2017-Dec-14 06:20N 25°46' W 080°09'0 0.0
2017-Dec-14 05:53N 25°46' W 080°09'0 0.0
2017-Dec-14 05:20N 25°46' W 080°09'0 0.0
2017-Dec-14 04:53N 25°46' W 080°09'0 0.0
2017-Dec-14 04:23N 25°46' W 080°09'0 0.0
2017-Dec-14 03:53N 25°46' W 080°09'0 0.0
2017-Dec-14 03:23N 25°46' W 080°09'0 0.0
2017-Dec-14 02:53N 25°46' W 080°09'0 0.5
2017-Dec-14 02:23N 25°46' W 080°09'0 0.0
2017-Dec-14 01:35N 25°46' W 080°09'0 0.0
2017-Dec-14 01:23N 25°46' W 080°09'0 0.0
2017-Dec-14 00:52N 25°46' W 080°09'0 0.0
2017-Dec-14 00:23N 25°46' W 080°09'0 0.0
2017-Dec-13 23:53N 25°46' W 080°09'0 0.0
2017-Dec-13 23:23N 25°46' W 080°09'0 0.0
2017-Dec-13 22:49N 25°46' W 080°09'0 0.0
2017-Dec-13 22:25N 25°46' W 080°09'0 0.0
2017-Dec-13 21:55N 25°46' W 080°09'0 0.0
2017-Dec-13 21:26N 25°46' W 080°09'0 0.0
2017-Dec-13 20:52N 25°46' W 080°09'0 0.0
2017-Dec-13 20:29N 25°46' W 080°09'0 0.0
2017-Dec-13 20:00N 25°46' W 080°09'0 0.4
2017-Dec-13 19:27N 25°46' W 080°09'0 0.0
2017-Dec-13 18:57N 25°46' W 080°09'0 0.0
2017-Dec-13 18:30N 25°46' W 080°09'0 0.0
2017-Dec-13 18:00N 25°46' W 080°09'0 0.0
2017-Dec-13 17:30N 25°46' W 080°09'0 0.0
2017-Dec-13 17:00N 25°46' W 080°09'0 0.0
2017-Dec-13 16:30N 25°46' W 080°09'0 0.0
2017-Dec-13 16:00N 25°46' W 080°09'0 0.0
2017-Dec-13 15:30N 25°46' W 080°09'0 0.0
2017-Dec-13 15:00N 25°46' W 080°09'0 0.0
2017-Dec-13 14:30N 25°46' W 080°09'0 0.0
2017-Dec-13 14:00N 25°46' W 080°09'0 0.0
2017-Dec-13 13:30N 25°46' W 080°09'0 0.0
2017-Dec-13 13:00N 25°46' W 080°09'0 0.0
2017-Dec-13 12:30N 25°46' W 080°09'0 0.0
2017-Dec-13 12:00N 25°46' W 080°09'2 3.7
2017-Dec-13 11:30N 25°45' W 080°07'3 5.0
2017-Dec-13 11:00N 25°47' W 080°05'1 1.5
2017-Dec-13 10:31N 25°47' W 080°06'0 0.1
2017-Dec-13 09:59N 25°47' W 080°05'0 0.1
2017-Dec-13 09:29N 25°47' W 080°06'0 0.1
2017-Dec-13 08:59N 25°47' W 080°05'0 0.1
2017-Dec-13 08:29N 25°47' W 080°05'0 0.1
2017-Dec-13 08:00N 25°47' W 080°05'0 0.2
2017-Dec-13 07:30N 25°47' W 080°05'0 0.2
2017-Dec-13 07:00N 25°47' W 080°05'3 5.8
2017-Dec-13 06:30N 25°45' W 080°04'510.4
2017-Dec-13 06:00N 25°40' W 080°03'510.5
2017-Dec-13 05:30N 25°34' W 080°02'611.2
2017-Dec-13 05:00N 25°29' W 080°02'710.6
2017-Dec-13 04:22N 25°22' W 080°02'  
2017-Dec-08 05:06N 29°30' W 094°52'1 8.7
2017-Dec-08 05:01N 29°31' W 094°53'4 8.0
2017-Dec-08 04:29N 29°34' W 094°55'4 8.0
2017-Dec-08 04:00N 29°37' W 094°58'4 8.9
2017-Dec-08 03:31N 29°42' W 094°59'4 7.6
2017-Dec-08 03:00N 29°44' W 095°03'3 0.1
2017-Dec-07 02:05N 29°45' W 095°06'0 0.0
2017-Dec-07 01:39N 29°45' W 095°06'0 0.0
2017-Dec-07 01:27N 29°45' W 095°06'0 0.0
2017-Dec-07 00:57N 29°45' W 095°06'0 0.0
2017-Dec-07 00:29N 29°45' W 095°06'0 0.0
2017-Dec-06 23:59N 29°45' W 095°06'0 0.0
2017-Dec-06 23:28N 29°45' W 095°06'0 0.0
2017-Dec-06 23:00N 29°45' W 095°06'0 0.0
2017-Dec-06 22:28N 29°45' W 095°06'0 0.0
2017-Dec-06 22:00N 29°45' W 095°06'0 0.0
2017-Dec-06 21:24N 29°45' W 095°06'0 0.0
2017-Dec-06 20:58N 29°45' W 095°06'  

Dump ship's entire track history